Time;durP1;ratioP1;P1;durP2;ratioP2;P2;SDS_P1;SDS_P2;PMS_P1;PMS_P2;Temp;Humidity;BMP_temperature;BMP_pressure;BME280_temperature;BME280_humidity;BME280_pressure;Samples;Min_cycle;Max_cycle;Signal;HPM_P1;HPM_P2
2021/07/11 00:00:29;;;;;;;;;;;18.10;99.90;;;;;;5094843;28;19998;-79
2021/07/11 00:02:55;;;;;;;;;;;18.20;99.90;;;;;;5093499;28;19985;-77
2021/07/11 00:05:22;;;;;;;;;;;18.10;99.90;;;;;;5094721;28;19904;-78
2021/07/11 00:07:47;;;;;;;;;;;18.10;99.90;;;;;;5094711;28;20393;-79
2021/07/11 00:10:13;;;;;;;;;;;18.10;99.90;;;;;;5094278;28;19904;-75
2021/07/11 00:12:38;;;;;;;;;;;18.10;99.90;;;;;;5094321;28;20247;-76
2021/07/11 00:15:05;;;;;;;;;;;18.10;99.90;;;;;;5094216;28;19904;-77
2021/07/11 00:17:31;;;;;;;;;;;18.00;99.90;;;;;;5093856;28;19951;-78
2021/07/11 00:19:56;;;;;;;;;;;18.00;99.90;;;;;;5095059;28;19915;-75
2021/07/11 00:22:22;;;;;;;;;;;18.00;99.90;;;;;;5094776;28;19904;-78
2021/07/11 00:24:48;;;;;;;;;;;17.90;99.90;;;;;;5094026;28;19908;-78
2021/07/11 00:27:13;;;;;;;;;;;17.80;99.90;;;;;;5094611;28;19915;-79
2021/07/11 00:29:39;;;;;;;;;;;17.90;99.90;;;;;;5095629;28;20003;-79
2021/07/11 00:32:04;;;;;;;;;;;18.00;99.90;;;;;;5095767;28;19903;-78
2021/07/11 00:34:30;;;;;;;;;;;18.00;99.90;;;;;;5095856;28;19904;-77
2021/07/11 00:36:55;;;;;;;;;;;18.00;99.90;;;;;;5095069;28;19927;-77
2021/07/11 00:39:21;;;;;;;;;;;18.00;99.90;;;;;;5094040;28;19911;-77
2021/07/11 00:41:46;;;;;;;;;;;18.00;99.90;;;;;;5093342;28;19911;-78
2021/07/11 00:44:12;;;;;;;;;;;18.00;99.90;;;;;;5094989;28;19995;-78
2021/07/11 00:46:37;;;;;;;;;;;18.00;99.90;;;;;;5093922;28;19994;-78
2021/07/11 00:49:04;;;;;;;;;;;18.00;99.90;;;;;;5094070;28;19912;-77
2021/07/11 00:51:29;;;;;;;;;;;17.90;99.90;;;;;;5096100;28;19961;-79
2021/07/11 00:53:55;;;;;;;;;;;17.90;99.90;;;;;;5093933;28;19919;-77
2021/07/11 00:56:20;;;;;;;;;;;18.00;99.90;;;;;;5093326;28;20416;-78
2021/07/11 00:58:46;;;;;;;;;;;18.00;99.90;;;;;;5093945;28;19911;-78
2021/07/11 01:01:14;;;;;;;;;;;17.90;99.90;;;;;;5094957;28;19911;-77
2021/07/11 01:03:41;;;;;;;;;;;17.90;99.90;;;;;;5093748;28;20277;-77
2021/07/11 01:06:06;;;;;;;;;;;18.00;99.90;;;;;;5095924;28;19912;-78
2021/07/11 01:08:53;;;;;;;;;;;18.00;99.90;;;;;;5093918;28;19911;-78
2021/07/11 01:11:21;;;;;;;;;;;18.00;99.90;;;;;;5094166;28;19926;-78
2021/07/11 01:13:47;;;;;;;;;;;18.00;99.90;;;;;;5093933;28;20003;-76
2021/07/11 01:16:15;;;;;;;;;;;17.90;99.90;;;;;;5095941;28;19904;-77
2021/07/11 01:18:42;;;;;;;;;;;17.90;99.90;;;;;;5093804;28;19949;-78
2021/07/11 01:21:12;;;;;;;;;;;17.90;99.90;;;;;;5093972;28;19961;-78
2021/07/11 01:23:40;;;;;;;;;;;17.90;99.90;;;;;;5093132;28;19904;-78
2021/07/11 01:26:07;;;;;;;;;;;17.90;99.90;;;;;;5092942;28;19904;-77
2021/07/11 01:28:33;;;;;;;;;;;17.90;99.90;;;;;;5094862;28;20298;-78
2021/07/11 01:30:59;;;;;;;;;;;17.80;99.90;;;;;;5093550;28;19904;-77
2021/07/11 01:33:26;;;;;;;;;;;17.80;99.90;;;;;;5094437;28;20116;-77
2021/07/11 01:35:51;;;;;;;;;;;17.80;99.90;;;;;;5094521;28;19911;-79
2021/07/11 01:38:17;;;;;;;;;;;17.80;99.90;;;;;;5093266;28;20270;-77
2021/07/11 01:40:43;;;;;;;;;;;17.80;99.90;;;;;;5094469;28;19915;-77
2021/07/11 01:43:09;;;;;;;;;;;17.80;99.90;;;;;;5092801;28;19911;-78
2021/07/11 01:45:35;;;;;;;;;;;17.80;99.90;;;;;;5095105;28;19912;-79
2021/07/11 01:48:01;;;;;;;;;;;17.80;99.90;;;;;;5098366;28;19908;-78
2021/07/11 01:50:27;;;;;;;;;;;17.70;99.90;;;;;;5096566;28;19904;-78
2021/07/11 01:52:53;;;;;;;;;;;17.60;99.90;;;;;;5097941;28;19973;-77
2021/07/11 01:55:20;;;;;;;;;;;17.60;99.90;;;;;;5096943;28;19904;-77
2021/07/11 01:57:46;;;;;;;;;;;17.60;99.90;;;;;;5098403;28;19904;-77
2021/07/11 02:00:14;;;;;;;;;;;17.60;99.90;;;;;;5097835;28;19904;-78
2021/07/11 02:02:44;;;;;;;;;;;17.60;99.90;;;;;;5095694;28;19904;-78
2021/07/11 02:05:10;;;;;;;;;;;17.50;99.90;;;;;;5098072;28;19994;-78
2021/07/11 02:07:35;;;;;;;;;;;17.50;99.90;;;;;;5095856;28;19908;-78
2021/07/11 02:10:03;;;;;;;;;;;17.50;99.90;;;;;;5095545;28;19961;-77
2021/07/11 02:12:31;;;;;;;;;;;17.50;99.90;;;;;;5096577;28;19904;-79
2021/07/11 02:14:56;;;;;;;;;;;17.50;99.90;;;;;;5095394;28;20264;-78
2021/07/11 02:17:24;;;;;;;;;;;17.50;99.90;;;;;;5097644;28;19949;-78
2021/07/11 02:19:51;;;;;;;;;;;17.60;99.90;;;;;;5096150;28;20003;-77
2021/07/11 02:22:16;;;;;;;;;;;17.50;99.90;;;;;;5097181;28;19943;-78
2021/07/11 02:24:43;;;;;;;;;;;17.50;99.90;;;;;;5096960;28;19904;-77
2021/07/11 02:27:09;;;;;;;;;;;17.50;99.90;;;;;;5095958;28;19916;-79
2021/07/11 02:29:41;;;;;;;;;;;17.40;99.90;;;;;;5095817;28;20263;-78
2021/07/11 02:32:08;;;;;;;;;;;17.30;99.90;;;;;;5095862;28;19911;-77
2021/07/11 02:34:34;;;;;;;;;;;17.30;99.90;;;;;;5097124;28;19972;-77
2021/07/11 02:37:01;;;;;;;;;;;17.30;99.90;;;;;;5097407;28;19911;-77
2021/07/11 02:39:27;;;;;;;;;;;17.30;99.90;;;;;;5096127;28;19904;-77
2021/07/11 02:41:54;;;;;;;;;;;17.20;99.90;;;;;;5095799;28;19927;-77
2021/07/11 02:44:20;;;;;;;;;;;17.30;99.90;;;;;;5096118;28;20317;-77
2021/07/11 02:46:48;;;;;;;;;;;17.30;99.90;;;;;;5095514;28;19934;-77
2021/07/11 02:49:15;;;;;;;;;;;17.20;99.90;;;;;;5095702;28;19904;-77
2021/07/11 02:51:41;;;;;;;;;;;17.30;99.90;;;;;;5095305;28;19950;-77
2021/07/11 02:54:08;;;;;;;;;;;17.30;99.90;;;;;;5096438;28;20275;-77
2021/07/11 02:56:35;;;;;;;;;;;17.20;99.90;;;;;;5094976;28;19904;-77
2021/07/11 02:59:01;;;;;;;;;;;17.20;99.90;;;;;;5095981;28;19904;-77
2021/07/11 03:01:28;;;;;;;;;;;17.20;99.90;;;;;;5096654;28;19942;-77
2021/07/11 03:03:56;;;;;;;;;;;17.20;99.90;;;;;;5096718;28;19904;-78
2021/07/11 03:06:21;;;;;;;;;;;17.10;99.90;;;;;;5097293;28;19908;-77
2021/07/11 03:08:47;;;;;;;;;;;17.10;99.90;;;;;;5095299;28;19926;-77
2021/07/11 03:11:12;;;;;;;;;;;17.10;99.90;;;;;;5095544;28;19904;-77
2021/07/11 03:13:39;;;;;;;;;;;17.20;99.90;;;;;;5095303;28;20374;-78
2021/07/11 03:16:05;;;;;;;;;;;17.20;99.90;;;;;;5095308;28;19920;-77
2021/07/11 03:18:31;;;;;;;;;;;17.20;99.90;;;;;;5096315;28;19904;-78
2021/07/11 03:20:57;;;;;;;;;;;17.20;99.90;;;;;;5096429;28;19904;-78
2021/07/11 03:23:23;;;;;;;;;;;17.20;99.90;;;;;;5096138;28;20460;-77
2021/07/11 03:25:49;;;;;;;;;;;17.20;99.90;;;;;;5094387;28;20003;-78
2021/07/11 03:28:16;;;;;;;;;;;17.20;99.90;;;;;;5096847;28;20276;-77
2021/07/11 03:30:43;;;;;;;;;;;17.20;99.90;;;;;;5095034;28;20434;-77
2021/07/11 03:33:09;;;;;;;;;;;17.30;99.90;;;;;;5095180;28;20263;-77
2021/07/11 03:35:53;;;;;;;;;;;17.20;99.90;;;;;;5095833;28;20385;-77
2021/07/11 03:38:21;;;;;;;;;;;17.10;99.90;;;;;;5096352;28;19904;-78
2021/07/11 03:40:50;;;;;;;;;;;17.10;99.90;;;;;;5096115;28;19967;-78
2021/07/11 03:43:16;;;;;;;;;;;17.10;99.90;;;;;;5096532;28;20481;-78
2021/07/11 03:45:43;;;;;;;;;;;17.10;99.90;;;;;;5095178;28;19951;-79
2021/07/11 03:48:13;;;;;;;;;;;17.10;99.90;;;;;;5095819;28;19912;-77
2021/07/11 03:50:41;;;;;;;;;;;17.10;99.90;;;;;;5096046;28;19911;-78
2021/07/11 03:53:08;;;;;;;;;;;17.10;99.90;;;;;;5096214;28;19904;-78
2021/07/11 03:55:35;;;;;;;;;;;17.20;99.90;;;;;;5096492;28;20347;-78
2021/07/11 03:58:02;;;;;;;;;;;17.20;99.90;;;;;;5096947;28;19934;-77
2021/07/11 04:00:28;;;;;;;;;;;17.10;99.90;;;;;;5096114;28;19950;-77
2021/07/11 04:02:54;;;;;;;;;;;17.10;99.90;;;;;;5096237;28;19946;-77
2021/07/11 04:05:25;;;;;;;;;;;17.10;99.90;;;;;;5096806;28;19904;-77
2021/07/11 04:07:54;;;;;;;;;;;17.10;99.90;;;;;;5095138;28;19908;-78
2021/07/11 04:10:24;;;;;;;;;;;17.20;99.90;;;;;;5094421;28;19911;-78
2021/07/11 04:12:49;;;;;;;;;;;17.10;99.90;;;;;;5095357;28;19925;-78
2021/07/11 04:15:15;;;;;;;;;;;17.10;99.90;;;;;;5093838;28;19911;-77
2021/07/11 04:17:44;;;;;;;;;;;17.20;99.90;;;;;;5094419;28;19969;-77
2021/07/11 04:20:09;;;;;;;;;;;17.30;99.90;;;;;;5095521;28;19904;-77
2021/07/11 04:22:36;;;;;;;;;;;17.30;99.90;;;;;;5096707;28;19910;-78
2021/07/11 04:25:02;;;;;;;;;;;17.30;99.90;;;;;;5094289;28;20290;-77
2021/07/11 04:27:28;;;;;;;;;;;17.30;99.90;;;;;;5094990;28;20002;-77
2021/07/11 04:29:54;;;;;;;;;;;17.30;99.90;;;;;;5094435;28;19903;-77
2021/07/11 04:32:19;;;;;;;;;;;17.30;99.90;;;;;;5095645;28;19946;-77
2021/07/11 04:34:45;;;;;;;;;;;17.40;99.90;;;;;;5096154;28;20316;-78
2021/07/11 04:37:11;;;;;;;;;;;17.40;99.90;;;;;;5096097;28;19904;-79
2021/07/11 04:39:37;;;;;;;;;;;17.40;99.90;;;;;;5096589;28;19947;-80
2021/07/11 04:42:03;;;;;;;;;;;17.40;99.90;;;;;;5093748;28;19973;-77
2021/07/11 04:44:28;;;;;;;;;;;17.40;99.90;;;;;;5094822;28;19963;-79
2021/07/11 04:46:54;;;;;;;;;;;17.40;99.90;;;;;;5093171;28;19933;-78
2021/07/11 04:49:22;;;;;;;;;;;17.40;99.90;;;;;;5094990;28;20271;-78
2021/07/11 04:51:48;;;;;;;;;;;17.50;99.90;;;;;;5093359;28;19910;-77
2021/07/11 04:54:13;;;;;;;;;;;17.50;99.90;;;;;;5093675;28;19904;-77
2021/07/11 04:56:39;;;;;;;;;;;17.60;99.90;;;;;;5092540;28;19998;-78
2021/07/11 04:59:04;;;;;;;;;;;17.60;99.90;;;;;;5092691;28;19911;-77
2021/07/11 05:01:30;;;;;;;;;;;17.70;99.90;;;;;;5093862;28;19911;-77
2021/07/11 05:03:55;;;;;;;;;;;17.80;99.90;;;;;;5088920;28;19908;-79
2021/07/11 05:06:21;;;;;;;;;;;17.80;99.90;;;;;;5093277;28;19999;-78
2021/07/11 05:08:47;;;;;;;;;;;17.90;99.90;;;;;;5086045;28;20302;-78
2021/07/11 05:11:12;;;;;;;;;;;17.70;99.90;;;;;;5081850;28;19916;-77
2021/07/11 05:13:38;;;;;;;;;;;17.70;99.90;;;;;;5082769;28;19943;-77
2021/07/11 05:16:04;;;;;;;;;;;17.70;99.90;;;;;;5082430;28;19973;-77
2021/07/11 05:18:29;;;;;;;;;;;17.70;99.90;;;;;;5080576;28;19909;-76
2021/07/11 05:20:55;;;;;;;;;;;17.80;99.90;;;;;;5085717;28;19949;-76
2021/07/11 05:23:20;;;;;;;;;;;17.80;99.90;;;;;;5083859;28;20387;-78
2021/07/11 05:25:46;;;;;;;4.10;2.80;;;17.80;99.90;;;;;;5087401;28;20006;-77
2021/07/11 05:28:11;;;;;;;2.65;2.35;;;17.90;99.90;;;;;;5086476;28;20017;-77
2021/07/11 05:30:37;;;;;;;;;;;18.00;99.90;;;;;;5084900;28;20140;-78
2021/07/11 05:33:03;;;;;;;;;;;18.00;99.90;;;;;;5078407;28;19904;-78
2021/07/11 05:35:28;;;;;;;;;;;18.00;99.90;;;;;;5076914;28;19916;-77
2021/07/11 05:37:54;;;;;;;;;;;18.20;99.90;;;;;;5076219;28;19904;-78
2021/07/11 05:40:19;;;;;;;;;;;18.20;99.90;;;;;;5078258;28;19904;-77
2021/07/11 05:42:45;;;;;;;;;;;18.20;99.90;;;;;;5079482;28;19914;-77
2021/07/11 05:45:11;;;;;;;;;;;18.30;99.90;;;;;;5083913;28;19920;-77
2021/07/11 05:47:37;;;;;;;;;;;18.40;99.90;;;;;;5091668;28;19915;-77
2021/07/11 05:50:03;;;;;;;;;;;18.40;99.90;;;;;;5097838;28;19904;-78
2021/07/11 05:52:29;;;;;;;;;;;18.50;99.90;;;;;;5097640;28;19904;-76
2021/07/11 05:54:54;;;;;;;;;;;18.60;99.90;;;;;;5094627;28;19915;-78
2021/07/11 05:57:20;;;;;;;;;;;18.60;99.90;;;;;;5086697;28;19908;-77
2021/07/11 05:59:46;;;;;;;;;;;18.60;99.90;;;;;;5083900;28;19994;-77
2021/07/11 06:02:11;;;;;;;;;;;18.70;99.90;;;;;;5082825;28;19905;-77
2021/07/11 06:04:37;;;;;;;;;;;18.70;99.90;;;;;;5080540;28;20120;-78
2021/07/11 06:07:03;;;;;;;;;;;18.80;99.90;;;;;;5084784;28;19915;-78
2021/07/11 06:09:28;;;;;;;;;;;18.70;99.90;;;;;;5085721;28;20017;-77
2021/07/11 06:11:54;;;;;;;;;;;18.70;99.90;;;;;;5086037;28;19908;-76
2021/07/11 06:14:19;;;;;;;;;;;18.70;99.90;;;;;;5084603;28;19904;-77
2021/07/11 06:16:45;;;;;;;;;;;18.70;99.90;;;;;;5085636;28;19939;-76
2021/07/11 06:19:14;;;;;;;;;;;18.80;99.90;;;;;;5086401;28;19904;-80
2021/07/11 06:21:40;;;;;;;;;;;19.00;99.90;;;;;;5084440;28;19911;-80
2021/07/11 06:24:05;;;;;;;;;;;19.30;99.90;;;;;;5084522;28;19904;-81
2021/07/11 06:26:31;;;;;;;;;;;19.30;99.90;;;;;;5086080;28;20333;-78
2021/07/11 06:28:57;;;;;;;;;;;19.40;99.90;;;;;;5085965;28;19908;-79
2021/07/11 06:31:23;;;;;;;;;;;19.40;99.90;;;;;;5086759;28;19915;-81
2021/07/11 06:33:48;;;;;;;;;;;19.40;99.90;;;;;;5074357;28;19912;-81
2021/07/11 06:36:16;;;;;;;;;;;19.50;99.90;;;;;;5076432;28;19904;-84
2021/07/11 06:38:42;;;;;;;;;;;19.50;99.90;;;;;;5075834;28;19916;-80
2021/07/11 06:41:08;;;;;;;;;;;19.60;99.90;;;;;;5078416;28;19912;-81
2021/07/11 06:43:36;;;;;;;;;;;20.10;99.90;;;;;;5081101;28;20003;-82
2021/07/11 06:46:01;;;;;;;;;;;20.90;99.90;;;;;;5075779;28;20516;-83
2021/07/11 06:48:27;;;;;;;;;;;21.20;99.90;;;;;;5075752;28;19908;-80
2021/07/11 06:50:52;;;;;;;;;;;21.30;99.90;;;;;;5083285;28;20389;-79
2021/07/11 06:53:18;;;;;;;;;;;21.60;99.90;;;;;;5085170;28;19908;-80
2021/07/11 06:55:43;;;;;;;;;;;22.00;99.90;;;;;;5085813;28;19912;-83
2021/07/11 06:58:09;;;;;;;;;;;21.90;99.90;;;;;;5086831;28;19904;-82
2021/07/11 07:00:37;;;;;;;;;;;21.50;99.90;;;;;;5085431;28;20311;-81
2021/07/11 07:03:03;;;;;;;;;;;21.10;99.90;;;;;;5088850;28;20286;-80
2021/07/11 07:05:31;;;;;;;;;;;20.90;99.90;;;;;;5092841;28;19908;-81
2021/07/11 07:07:58;;;;;;;;;;;20.70;99.90;;;;;;5094561;28;19912;-83
2021/07/11 07:10:24;;;;;;;;;;;20.40;99.90;;;;;;5085703;28;19911;-82
2021/07/11 07:12:49;;;;;;;;;;;20.30;99.90;;;;;;5086973;28;19926;-83
2021/07/11 07:15:18;;;;;;;;;;;20.30;99.90;;;;;;5086063;28;19904;-83
2021/07/11 07:17:44;;;;;;;;;;;20.30;99.90;;;;;;5085326;28;20006;-82
2021/07/11 07:20:10;;;;;;;;;;;20.30;99.90;;;;;;5094986;28;19955;-82
2021/07/11 07:22:36;;;;;;;;;;;20.20;99.90;;;;;;5085546;28;19911;-85
2021/07/11 07:25:03;;;;;;;;;;;20.20;99.90;;;;;;5085175;28;19918;-84
2021/07/11 07:27:28;;;;;;;;;;;20.20;99.90;;;;;;5096033;28;20273;-82
2021/07/11 07:29:54;;;;;;;;;;;20.10;99.90;;;;;;5097425;28;20331;-83
2021/07/11 07:32:19;;;;;;;;;;;20.00;99.90;;;;;;5096339;28;19904;-82
2021/07/11 07:34:45;;;;;;;;;;;19.70;99.90;;;;;;5096216;28;20274;-82
2021/07/11 07:37:10;;;;;;;;;;;19.60;99.90;;;;;;5097796;28;19936;-84
2021/07/11 07:39:35;;;;;;;;;;;19.40;99.90;;;;;;5100507;28;19908;-82
2021/07/11 07:42:01;;;;;;;;;;;19.40;99.90;;;;;;5102029;28;19904;-84
2021/07/11 07:44:26;;;;;;;;;;;19.40;99.90;;;;;;5105017;28;19908;-81
2021/07/11 07:46:55;;;;;;;;;;;19.30;99.90;;;;;;5095655;28;19927;-80
2021/07/11 07:49:23;;;;;;;;;;;19.40;99.90;;;;;;5100867;28;20042;-86
2021/07/11 07:51:49;;;;;;;;;;;19.60;99.90;;;;;;5091903;28;19908;-86
2021/07/11 07:54:14;;;;;;;;;;;19.70;99.90;;;;;;5092973;28;19915;-83
2021/07/11 07:56:40;;;;;;;;;;;19.90;99.90;;;;;;5082441;28;19930;-82
2021/07/11 07:59:05;;;;;;;;;;;20.00;99.90;;;;;;5083788;28;19905;-81
2021/07/11 08:01:31;;;;;;;;;;;20.10;99.90;;;;;;5093465;28;19904;-80
2021/07/11 08:03:56;;;;;;;;;;;20.10;99.90;;;;;;5093752;28;20267;-81
2021/07/11 08:06:21;;;;;;;;;;;20.30;99.90;;;;;;5094271;28;19951;-81
2021/07/11 08:08:47;;;;;;;;;;;20.60;99.90;;;;;;5093662;28;20320;-83
2021/07/11 08:11:12;;;;;;;;;;;21.30;99.90;;;;;;5094385;28;19904;-80
2021/07/11 08:13:38;;;;;;;;;;;21.80;99.90;;;;;;5093573;28;19904;-80
2021/07/11 08:16:05;;;;;;;;;;;22.20;99.90;;;;;;5093353;28;20279;-84
2021/07/11 08:18:30;;;;;;;;;;;22.20;99.90;;;;;;5094680;28;19911;-81
2021/07/11 08:20:56;;;;;;;;;;;22.10;99.90;;;;;;5093319;28;19904;-82
2021/07/11 08:23:21;;;;;;;;;;;22.00;99.90;;;;;;5094404;28;19904;-82
2021/07/11 08:25:46;;;;;;;;;;;22.30;99.90;;;;;;5093192;28;19900;-83
2021/07/11 08:28:12;;;;;;;;;;;22.90;99.90;;;;;;5093184;28;19912;-82
2021/07/11 08:30:37;;;;;;;;;;;24.10;99.90;;;;;;5093274;28;19994;-81
2021/07/11 08:33:03;;;;;;;;;;;24.70;99.90;;;;;;5092824;28;19911;-82
2021/07/11 08:35:28;;;;;;;;;;;24.80;99.90;;;;;;5093029;28;19974;-80
2021/07/11 08:37:54;;;;;;;;;;;25.00;99.90;;;;;;5093513;28;19908;-80
2021/07/11 08:40:20;;;;;;;;;;;24.40;99.90;;;;;;5094238;28;19904;-84
2021/07/11 08:42:48;;;;;;;;;;;24.50;99.90;;;;;;5092677;28;19911;-82
2021/07/11 08:45:14;;;;;;;;;;;24.30;99.90;;;;;;5092622;28;19904;-85
2021/07/11 08:47:40;;;;;;;3.30;2.30;;;23.50;99.90;;;;;;5092665;28;19908;-82
2021/07/11 08:50:07;;;;;;;;;;;23.30;99.90;;;;;;5092662;28;20025;-81
2021/07/11 08:52:34;;;;;;;;;;;22.90;99.90;;;;;;5092790;28;19950;-85
2021/07/11 08:54:59;;;;;;;;;;;23.00;99.90;;;;;;5092309;28;19970;-81
2021/07/11 08:57:24;;;;;;;;;;;23.40;99.90;;;;;;5092688;28;20352;-81
2021/07/11 08:59:50;;;;;;;;;;;23.60;99.90;;;;;;5092803;28;19918;-81
2021/07/11 09:02:16;;;;;;;;;;;23.60;99.90;;;;;;5092363;28;19904;-82
2021/07/11 09:04:41;;;;;;;;;;;23.70;99.90;;;;;;5092376;28;19904;-81
2021/07/11 09:07:07;;;;;;;;;;;23.80;99.90;;;;;;5092180;28;19915;-82
2021/07/11 09:09:37;;;;;;;;;;;23.70;99.90;;;;;;5092907;28;19904;-80
2021/07/11 09:12:09;;;;;;;;;;;23.50;99.90;;;;;;5092766;28;19904;-82
2021/07/11 09:14:37;;;;;;;;;;;23.40;99.90;;;;;;5092804;28;19956;-81
2021/07/11 09:17:03;;;;;;;;;;;22.80;99.90;;;;;;5094006;28;19904;-81
2021/07/11 09:19:28;;;;;;;;;;;22.60;99.90;;;;;;5092595;28;19908;-82
2021/07/11 09:21:57;;;;;;;;;;;22.40;99.90;;;;;;5092792;28;19904;-82
2021/07/11 09:24:24;;;;;;;;;;;22.30;99.90;;;;;;5094037;28;19904;-82
2021/07/11 09:26:50;;;;;;;;;;;22.30;99.90;;;;;;5092711;28;19908;-84
2021/07/11 09:29:26;;;;;;;;;;;22.50;99.90;;;;;;5092712;28;20323;-80
2021/07/11 09:31:51;;;;;;;;;;;22.60;99.90;;;;;;5092617;28;19904;-81
2021/07/11 09:34:19;;;;;;;;;;;22.70;99.90;;;;;;5093087;28;19904;-82
2021/07/11 09:36:47;;;;;;;;;;;22.50;99.90;;;;;;5092990;28;19911;-81
2021/07/11 09:39:13;;;;;;;;;;;22.50;99.90;;;;;;5093110;28;19950;-82
2021/07/11 09:41:38;;;;;;;;;;;22.70;99.90;;;;;;5093068;28;19908;-81
2021/07/11 09:44:04;;;;;;;;;;;22.70;99.90;;;;;;5093705;28;19939;-82
2021/07/11 09:46:33;;;;;;;;;;;22.60;99.90;;;;;;5093028;28;19915;-81
2021/07/11 09:48:59;;;;;;;;;;;22.80;99.90;;;;;;5092854;28;19904;-81
2021/07/11 09:51:25;;;;;;;;;;;23.10;99.90;;;;;;5093269;28;19911;-81
2021/07/11 09:53:51;;;;;;;;;;;23.00;99.90;;;;;;5093106;28;19904;-81
2021/07/11 09:56:30;;;;;;;;;;;22.60;99.90;;;;;;5093262;28;19954;-81
2021/07/11 09:58:56;;;;;;;;;;;22.30;99.90;;;;;;5092811;28;19904;-81
2021/07/11 10:01:22;;;;;;;;;;;22.20;99.90;;;;;;5092843;28;19910;-82
2021/07/11 10:03:48;;;;;;;;;;;22.10;99.90;;;;;;5092495;28;19947;-80
2021/07/11 10:06:13;;;;;;;;;;;22.10;99.90;;;;;;5094753;28;19907;-81
2021/07/11 10:08:39;;;;;;;;;;;22.10;99.90;;;;;;5097724;28;19904;-82
2021/07/11 10:11:05;;;;;;;;;;;22.20;99.90;;;;;;5100103;28;19958;-82
2021/07/11 10:13:31;;;;;;;;;;;22.60;99.90;;;;;;5097600;28;19915;-83
2021/07/11 10:15:56;;;;;;;;;;;23.30;99.90;;;;;;5097822;28;19900;-82
2021/07/11 10:18:22;;;;;;;2.43;2.23;;;24.80;99.90;;;;;;5095158;28;20034;-82
2021/07/11 10:20:55;;;;;;;2.57;2.37;;;25.80;99.90;;;;;;5096074;28;20047;-81
2021/07/11 10:23:27;;;;;;;2.40;2.20;;;25.50;99.90;;;;;;5097378;28;20413;-82
2021/07/11 10:25:56;;;;;;;;;;;24.60;99.90;;;;;;5098550;28;20024;-83
2021/07/11 10:28:24;;;;;;;;;;;24.10;99.90;;;;;;5097918;28;19907;-83
2021/07/11 10:30:50;;;;;;;;;;;23.80;99.90;;;;;;5098627;28;19904;-82
2021/07/11 10:33:20;;;;;;;;;;;23.90;99.90;;;;;;5100041;28;19950;-83
2021/07/11 10:35:56;;;;;;;;;;;23.70;99.90;;;;;;5105988;28;19904;-82
2021/07/11 10:38:45;;;;;;;;;;;23.30;99.90;;;;;;5111271;28;19926;-84
2021/07/11 10:41:11;;;;;;;;;;;22.70;99.90;;;;;;5100070;28;19911;-80
2021/07/11 10:43:37;;;;;;;;;;;22.70;99.90;;;;;;5099463;28;19908;-82
2021/07/11 10:46:03;;;;;;;;;;;22.60;99.90;;;;;;5095112;28;19970;-82
2021/07/11 10:48:30;;;;;;;;;;;22.70;99.90;;;;;;5095378;28;20264;-81
2021/07/11 10:50:55;;;;;;;;;;;22.90;99.90;;;;;;5096964;28;19998;-80
2021/07/11 10:53:21;;;;;;;;;;;22.60;99.90;;;;;;5094847;28;19951;-81
2021/07/11 10:55:47;;;;;;;;;;;22.70;99.90;;;;;;5095170;28;19904;-80
2021/07/11 10:58:16;;;;;;;;;;;22.70;99.90;;;;;;5096265;28;19958;-80
2021/07/11 11:00:43;;;;;;;;;;;22.60;99.90;;;;;;5095285;28;19998;-82
2021/07/11 11:03:19;;;;;;;;;;;22.60;99.90;;;;;;5096059;28;19934;-80
2021/07/11 11:05:46;;;;;;;;;;;22.70;99.90;;;;;;5095116;28;19908;-79
2021/07/11 11:08:12;;;;;;;;;;;22.80;99.90;;;;;;5094436;28;19907;-81
2021/07/11 11:10:39;;;;;;;;;;;23.70;99.90;;;;;;5096247;28;20481;-80
2021/07/11 11:13:13;;;;;;;;;;;24.60;99.90;;;;;;5094603;28;20264;-83
2021/07/11 11:15:50;;;;;;;;;;;24.60;99.90;;;;;;5094326;28;19916;-80
2021/07/11 11:18:20;;;;;;;;;;;24.00;99.90;;;;;;5095302;28;19986;-82
2021/07/11 11:20:51;;;;;;;;;;;23.30;99.90;;;;;;5094149;28;19904;-83
2021/07/11 11:23:17;;;;;;;;;;;23.10;99.90;;;;;;5094491;28;19941;-82
2021/07/11 11:25:43;;;;;;;;;;;23.00;99.90;;;;;;5094649;28;20284;-82
2021/07/11 11:28:09;;;;;;;;;;;22.90;99.90;;;;;;5094321;28;19969;-82
2021/07/11 11:30:36;;;;;;;;;;;22.90;99.90;;;;;;5094270;28;19908;-83
2021/07/11 11:33:01;;;;;;;;;;;22.90;99.90;;;;;;5093915;28;19904;-81
2021/07/11 11:35:28;;;;;;;;;;;22.90;99.90;;;;;;5094290;28;19911;-82
2021/07/11 11:37:58;;;;;;;;;;;23.00;99.90;;;;;;5094128;28;19904;-79
2021/07/11 11:40:24;;;;;;;;;;;23.20;99.90;;;;;;5095755;28;19948;-83
2021/07/11 11:42:54;;;;;;;;;;;23.40;99.90;;;;;;5093664;28;20002;-81
2021/07/11 11:45:21;;;;;;;;;;;23.00;99.90;;;;;;5093655;28;19908;-80
2021/07/11 11:47:59;;;;;;;;;;;23.30;99.90;;;;;;5093330;28;20056;-85
2021/07/11 11:50:24;;;;;;;;;;;23.20;99.90;;;;;;5093723;28;19927;-84
2021/07/11 11:52:50;;;;;;;;;;;23.30;99.90;;;;;;5093252;28;20363;-83
2021/07/11 11:55:15;;;;;;;;;;;23.40;99.90;;;;;;5093203;28;20000;-84
2021/07/11 11:57:41;;;;;;;;;;;23.40;99.90;;;;;;5092961;28;19919;-81
2021/07/11 12:00:13;;;;;;;;;;;23.50;99.90;;;;;;5093260;28;19904;-81
2021/07/11 12:02:39;;;;;;;;;;;23.50;99.90;;;;;;5093060;28;20363;-82
2021/07/11 12:05:12;;;;;;;;;;;23.60;99.90;;;;;;5093174;28;19904;-82
2021/07/11 12:07:37;;;;;;;;;;;23.40;99.90;;;;;;5094111;28;19940;-81
2021/07/11 12:10:04;;;;;;;;;;;23.40;99.90;;;;;;5094030;28;20272;-80
2021/07/11 12:12:29;;;;;;;;;;;23.70;99.90;;;;;;5093000;28;19908;-81
2021/07/11 12:14:55;;;;;;;;;;;23.50;99.90;;;;;;5095045;28;19911;-80
2021/07/11 12:17:20;;;;;;;;;;;23.50;99.90;;;;;;5094620;28;19904;-80
2021/07/11 12:19:50;;;;;;;;;;;23.70;99.90;;;;;;5092705;28;20394;-80
2021/07/11 12:22:17;;;;;;;;;;;23.60;99.90;;;;;;5092832;28;19904;-83
2021/07/11 12:24:42;;;;;;;;;;;23.60;99.90;;;;;;5094322;28;19906;-82
2021/07/11 12:27:08;;;;;;;;;;;23.70;99.90;;;;;;5092695;28;19915;-80
2021/07/11 12:29:34;;;;;;;;;;;24.60;99.90;;;;;;5092549;28;19904;-81
2021/07/11 12:32:01;;;;;;;;;;;25.70;99.90;;;;;;5092765;28;19980;-79
2021/07/11 12:34:50;;;;;;;;;;;26.50;99.90;;;;;;5093064;28;19904;-82
2021/07/11 12:37:19;;;;;;;;;;;26.70;99.90;;;;;;5092698;28;19904;-84
2021/07/11 12:39:44;;;;;;;;;;;26.90;99.90;;;;;;5093009;28;19951;-84
2021/07/11 12:42:21;;;;;;;;;;;27.30;99.90;;;;;;5093374;28;19911;-82
2021/07/11 12:44:47;;;;;;;;;;;27.30;99.90;;;;;;5093308;28;20401;-84
2021/07/11 12:47:17;;;;;;;;;;;27.30;99.90;;;;;;5095208;28;19912;-82
2021/07/11 12:49:57;;;;;;;;;;;26.90;99.90;;;;;;5093212;28;21240;-83
2021/07/11 12:52:24;;;;;;;;;;;27.00;99.90;;;;;;5094741;28;20363;-83
2021/07/11 12:54:49;;;;;;;;;;;26.80;99.90;;;;;;5093895;28;20211;-81
2021/07/11 12:57:15;;;;;;;;;;;27.20;99.90;;;;;;5093988;28;20282;-81
2021/07/11 12:59:50;;;;;;;;;;;27.30;99.90;;;;;;5093818;28;19908;-83
2021/07/11 13:02:23;;;;;;;;;;;27.20;99.90;;;;;;5096407;28;19995;-85
2021/07/11 13:04:58;;;;;;;;;;;26.80;99.90;;;;;;5097637;28;19908;-82
2021/07/11 13:07:24;;;;;;;;;;;26.90;99.90;;;;;;5096333;28;20336;-83
2021/07/11 13:09:50;;;;;;;;;;;27.20;99.90;;;;;;5096479;28;19908;-81
2021/07/11 13:12:16;;;;;;;;;;;27.50;99.90;;;;;;5096587;28;19923;-81
2021/07/11 13:14:54;;;;;;;;;;;27.20;99.90;;;;;;5096672;28;19908;-83
2021/07/11 13:17:20;;;;;;;;;;;27.20;99.90;;;;;;5098455;28;20462;-83
2021/07/11 13:19:46;;;;;;;;;;;27.30;99.90;;;;;;5096508;28;19943;-85
2021/07/11 13:22:11;;;;;;;;;;;26.90;99.90;;;;;;5097435;28;19908;-81
2021/07/11 13:24:37;;;;;;;1.47;1.33;;;26.30;99.90;;;;;;5097741;28;20271;-83
2021/07/11 13:27:03;;;;;;;;;;;26.30;99.90;;;;;;5097114;28;20562;-81
2021/07/11 13:29:28;;;;;;;;;;;26.00;99.90;;;;;;5100938;28;20279;-82
2021/07/11 13:31:53;;;;;;;;;;;25.40;99.90;;;;;;5105671;28;19956;-79
2021/07/11 13:34:19;;;;;;;;;;;24.90;99.90;;;;;;5098657;28;19908;-80
2021/07/11 13:36:46;;;;;;;;;;;24.50;99.90;;;;;;5100076;28;19911;-80
2021/07/11 13:39:11;;;;;;;;;;;24.90;99.90;;;;;;5093714;28;20037;-83
2021/07/11 13:41:42;;;;;;;1.53;1.23;;;25.60;99.90;;;;;;5098891;28;19939;-80
2021/07/11 13:44:08;;;;;;;1.50;1.30;;;26.10;99.90;;;;;;5096765;28;20024;-82
2021/07/11 13:46:33;;;;;;;0.77;0.77;;;26.50;99.90;;;;;;5097787;28;20028;-82
2021/07/11 13:48:59;;;;;;;1.60;1.30;;;26.30;99.90;;;;;;5096726;28;20026;-81
2021/07/11 13:51:26;;;;;;;3.33;1.40;;;26.50;99.90;;;;;;5096308;28;20073;-79
2021/07/11 13:53:52;;;;;;;;;;;26.50;99.90;;;;;;5097291;28;20056;-81
2021/07/11 13:56:18;;;;;;;2.22;1.33;;;25.60;99.90;;;;;;5095783;28;19923;-81
2021/07/11 13:58:43;;;;;;;1.30;1.20;;;24.60;99.90;;;;;;5096797;28;20043;-80
2021/07/11 14:01:10;;;;;;;4.87;1.23;;;23.90;99.90;;;;;;5096203;28;20024;-80
2021/07/11 14:03:38;;;;;;;1.98;1.63;;;23.40;99.90;;;;;;5096208;28;20063;-81
2021/07/11 14:06:05;;;;;;;1.23;1.13;;;23.00;99.90;;;;;;5096615;28;20116;-83
2021/07/11 14:08:30;;;;;;;;;;;23.00;99.90;;;;;;5096632;28;20165;-81